Kailua, HI (96734)

9:07 AM HST on August 26, 2016 (GMT -1000)
Kailua | | Change Station

Elev 20 ft 21.40 °N, 157.75 °W | Updated 1 minute ago

Overcast
Overcast
83.8 °F
Feels Like 89 °F
N
2.7
Wind Variable Wind from West

Today
High -- | Low -- °F
--% Chance of Precip.
Yesterday
High -- | Low -- °F
Precip. -- in
Pressure 30.02 in
Visibility 7.0 miles
Clouds Overcast 7000 ft
Heat Index 89 °F
Dew Point 71 °F
Humidity 65%
Rainfall 0.00 in
Snow Depth Not available.
6:12 AM 6:51 PM
Waning Crescent, 32% visible
METAR PHNG 261857Z 07009KT 7SM OVC070 27/22 A3004 RMK AO2 SLP165 T02720217 $
Pressure 30.02 in
Visibility 7.0 miles
Clouds Overcast 7000 ft
Heat Index 89 °F
Dew Point 71 °F
Humidity 65%
Rainfall 0.00 in
Snow Depth Not available.
6:12 AM 6:51 PM
Waning Crescent, 32% visible
METAR PHNG 261857Z 07009KT 7SM OVC070 27/22 A3004 RMK AO2 SLP165 T02720217 $

10-Day Weather Forecast

Almanac

Astronomy

Aug. 26, 2016 Rise Set
Actual Time
Civil Twilight
Nautical Twilight
Astronomical Twilight
Moon
Length of Visible Light
Length of Day
Tomorrow will be .
, % of the Moon is Illuminated

Today's Extremes

State Highs State Lows

Community

WunderPhotos

Upload Photos

1,935,188 photos uploaded!

WunderBlog® & News

Nearby

Air Quality

  Air Quality AQ Index Pollutant
Not available.

Snow Depth

Station Depth Elevation

Earthquake Activity

City Distance Mag. Time & Date
Minimum magnitude displayed is 2.5.

Coastal Water Temperatures

Place Temperature

Stations

Nearby Weather Stations

Station Location Temp. Windchill Dew Point Humidity Wind Precip. Elev Updated Type
                   

Watches & Warnings

There are currently no watches in effect.